Jason Hunter

Olheiro-Chefe - Stockport County
22 Fev 2028
Terça-feira
Processo

Personalidade

Adaptabilidade (12) Ambição (15) Controvérsia (14) Lealdade (11) Pressão (10) Profissionalismo (1) Espírito Esportivo (8) Temperamento (9)

Perfil

Estilo de Treinamento Democrático
Licença Continental C
Determinação 10
Gestão de Pessoas 4
Motivação 3
Disciplina 6
Satisfação no Trabalho
100%
Fadiga
0%
Função Olheiro-Chefe
Salário 36.2K p/s
Contrato 14.03.2028

Desempenho

Comportamento Bom
Eficácia do Treinamento
28%
Desenvolvimento do Jogador
40%
Prevenção de Lesões
45%
Implementação Tática
30%

Eventos Recentes

Negociação de contrato iniciada agora
Participou de uma reunião de recrutamento agora
Recomendou um alvo de transferência agora
Participou de uma reunião de recrutamento agora
Negociação de contrato iniciada 7d atrás
Negociação de contrato iniciada 7d atrás
Negociação de contrato iniciada 7d atrás
Negociação de contrato iniciada 7d atrás

Monitorando agora

79
Jogador Clube Status Habilidade Confiança Observado Última observação Último voto
Santiago Hezze Chaves Negociando 132 / 133 62% 1 01.01.2028 -
Aurélien Scheidler Tondela Ativo 119 / 119 67% 1 01.01.2028 Aprovar
Juan Bezerra BK Hacken Negociando 117 / 121 66% 1 01.01.2028 -
Reece Cole Newport County Ativo 95 / 104 62% 1 12.07.2027 Aprovar
Kane Wilson Milton Keynes Dons Ativo 110 / 106 40% 4 30.05.2027 -
Teden Mengi Luton Town Ativo 122 / 118 40% 2 30.05.2027 -
Lewis Brunt Peterborough United Ativo 113 / 123 40% 2 29.05.2027 -
Filippo Ranocchia Palermo Ativo 121 / 139 40% 2 27.05.2027 -
Jacob Greaves Ipswich Town Ativo 126 / 124 40% 3 26.05.2027 -
Williams Manyama SuperSport United Ativo 104 / 100 40% 6 24.05.2027 Observar
Kristoffer Lund Birmingham Ativo 131 / 126 40% 1 24.05.2027 -
Bali Mumba Huddersfield Town Ativo 127 / 105 40% 2 22.05.2027 -
Femi Seriki Sheffield United Ativo 124 / 124 40% 1 22.05.2027 -
Dennis Cirkin Queens Park Rangers Ativo 138 / 131 40% 2 21.05.2027 -
Edoardo Bove Watford Ativo 131 / 134 40% 1 21.05.2027 -
Mirko Topić Norwich City Ativo 111 / 110 40% 3 19.05.2027 -
Charlie Webster Burton Albion Ativo 108 / 117 40% 2 18.05.2027 -
Juan Mosquera Sheffield Wednesday Ativo 117 / 132 40% 2 18.05.2027 -
Victor Torp Coventry City Ativo 132 / 129 40% 1 16.05.2027 -
Brian De Keersmaecker Oxford United Ativo 125 / 125 40% 3 13.05.2027 -
Giovanni Haag Cardiff City Ativo 118 / 118 40% 2 13.05.2027 -
Di'Shon Bernard Sheffield Wednesday Ativo 112 / 115 40% 1 09.05.2027 -
Jack Currie Oxford United Ativo 127 / 118 40% 4 08.05.2027 -
Darlin Yongwa Norwich City Ativo 121 / 115 40% 2 08.05.2027 -
Archie Collins Peterborough United Ativo 110 / 104 40% 2 07.05.2027 -
James Morris Leyton Orient Ativo 110 / 107 40% 4 07.05.2027 -
Harvey White Stevenage Ativo 110 / 119 40% 2 05.05.2027 -
Zak Swanson Bradford City Ativo 118 / 112 40% 2 03.05.2027 -
Mandla Erasmus SuperSport United Ativo 130 / 112 40% 2 03.05.2027 -
Idris El Mizouni Leyton Orient Ativo 116 / 112 40% 1 29.04.2027 -
Daniel Tonoli Modena Ativo 130 / 132 40% 1 28.04.2027 -
Caolan Boyd-Munce Wycombe Wanderers Ativo 121 / 122 40% 3 25.04.2027 -
Bradley Tau SuperSport United Ativo 123 / 123 40% 3 24.04.2027 -
Aaron Morley Wycombe Wanderers Ativo 114 / 125 40% 3 21.04.2027 -
Habib Diarra Sunderland Ativo 140 / 134 40% 1 21.04.2027 -
Will Fish Cardiff City Ativo 111 / 120 40% 3 16.04.2027 -
Lucas Da Cunha Como Ativo 140 / 134 40% 1 15.04.2027 -
Kellen Fisher Norwich City Ativo 133 / 123 40% 1 14.04.2027 -
Oliver Skipp Leicester City Ativo 121 / 134 40% 2 13.04.2027 -
Neco Williams Nottingham Forest Ativo 148 / 143 40% 1 13.04.2027 -
Josh Edwards Charlton Athletic Ativo 115 / 127 40% 1 06.04.2027 -
Ilario Monterisi Frosinone Ativo 136 / 122 40% 1 04.04.2027 -
Leif Davis Ipswich Town Ativo 139 / 132 40% 1 04.04.2027 -
Justin Devenny Stoke City Ativo 128 / 134 40% 2 03.04.2027 -
Alessandro Sersanti Modena Ativo 129 / 115 40% 1 01.04.2027 -
Luca Connell Barnsley Ativo 109 / 109 40% 2 30.03.2027 -
Max Bird Birmingham Ativo 142 / 128 40% 4 28.03.2027 -
Bosun Lawal Stoke City Ativo 138 / 124 40% 2 26.03.2027 -
Derry Murkin Derby County Ativo 132 / 131 40% 7 25.03.2027 -
Álex Centelles Levski Ativo 114 / 133 40% 2 20.03.2027 -
Matteo Lovato Padova Ativo 133 / 124 40% 1 14.03.2027 -
Callum Doyle Wrexham Ativo 138 / 123 40% 1 12.03.2027 -
Milan van Ewijk Mansfield Town Ativo 138 / 130 40% 1 09.03.2027 -
Caleb Yirenkyi Coventry City Ativo 133 / 147 40% 1 06.03.2027 -
Andre Dozzell Doncaster Rovers Ativo 126 / 109 40% 1 02.03.2027 -
Andrea Carboni Monza Ativo 136 / 123 40% 1 08.02.2027 -
Andrei Coubiş Lincoln City Ativo 121 / 127 40% 1 07.02.2027 -
Florentino Luís Ipswich Town Ativo 150 / 150 40% 2 02.02.2027 -
Rushwin Dortley Kaizer Chiefs Ativo 103 / 118 40% 1 02.02.2027 -
Isaiah Jones Luton Town Ativo 121 / 121 40% 2 28.12.2026 -
Derensili Sanches Fernandes Huddersfield Town Ativo 118 / 114 40% 2 27.12.2026 -
Suleiman Camara Slovan Bratislava Ativo 106 / 132 40% 2 26.12.2026 -
Kwame Poku Queens Park Rangers Ativo 118 / 130 40% 1 26.12.2026 -
Sorba Thomas Stoke City Ativo 129 / 120 40% 2 25.12.2026 -
Tomás González Piast Ativo 105 / 132 40% 1 25.12.2026 -
Marcelo Allende Mamelodi Sundowns Ativo 129 / 145 40% 2 24.12.2026 -
Petar Stanić Ludogorets Ativo 144 / 127 40% 1 21.12.2026 -
Oswin Appollis Orlando Pirates Ativo 127 / 131 40% 1 20.12.2026 -
Thulani Mabaso Masr El Makasa Ativo 103 / 91 40% 1 19.12.2026 -
Bénie Traoré New York City Ativo 114 / 120 40% 1 17.12.2026 -
Cheick Doucouré Crystal Palace Ativo 139 / 137 40% 1 14.12.2026 -
Toby Collyer West Bromwich Albion Ativo 135 / 142 40% 1 12.12.2026 -
Luke McNally Bristol City Ativo 126 / 122 40% 1 12.12.2026 -
Braian Ojeda Orlando City Ativo 119 / 124 40% 1 09.12.2026 -
Miguel Navarro Colorado Rapids Ativo 125 / 128 40% 1 07.12.2026 -
Thalente Mbatha Orlando Pirates Ativo 101 / 105 40% 1 07.12.2026 -
Johnly Yfeko Exeter City Ativo 113 / 118 62% 1 03.08.2026 Aprovar
Cristian Roldan Seattle Sounders Ativo 137 / 121 40% 1 02.08.2026 -
Rui Modesto Vancouver Whitecaps Ativo 130 / 135 40% 1 02.08.2026 -